Terminal Aerodrome Forecast
Issued by NWS Cleveland, OH

Home | Current Version | Previous Version | Text Only | Print | Product List | Glossary On
Versions: 1 2 3 4 5 6 7 8 9 10 11 12 13 14 15 16 17 18 19 20 21
000
FTUS41 KCLE 190500
TAFERI
TAF
KERI 190531Z 1906/2006 29010KT P6SM OVC015
      TEMPO 1906/1910 -FZDZSN
     FM192100 30006KT P6SM BKN020
     FM200300 30006KT P6SM OVC015=

USA.gov is the U.S. government's official web portal to all federal, state and local government web resources and services.